AirNav   Textron
 
 1020 users online  

NY47 Wyeth Ayerst Heliport
Pearl River, New York, USA

GOING TO PEARL RIVER?


FAA INFORMATION EFFECTIVE 20 JULY 2017

Location

FAA Identifier: NY47
Lat/Long: 41-04-39.0000N / 074-01-29.0000W
41-04.650000N / 074-01.483333W
41.0775000 / -74.0247222
(estimated)
Elevation: 270 ft. / 82 m
Variation: 13W (2000)
From city: 1 mile N of PEARL RIVER, NY
Time zone: UTC -4 (UTC -5 during Standard Time)
Zip code: 10965

Heliport Operations

Heliport use: Private use. Permission required prior to landing
Activation date: 09/2002
Control tower: no
ARTCC: NEW YORK CENTER
FSS: NEW YORK FLIGHT SERVICE STATION
Attendance: UNATNDD
Wind indicator: lighted
Segmented circle: no
Lights: SS-SR

Heliport Communications

WX ASOS at TEB (14 nm S): PHONE 201-393-0855
WX ASOS at HPN (14 nm E): PHONE 914-288-0216
WX ASOS at CDW (17 nm SW): PHONE 973-575-4417
WX ASOS at LGA (19 nm S): PHONE 718-672-6317

Nearby radio navigation aids

VOR radial/distance  VOR name  Freq  Var
TEBr018/13.8TETERBORO VOR/DME108.4011W
LGAr350/19.0LA GUARDIA VOR/DME113.1012W
SAXr100/23.2SPARTA VORTAC115.7011W
CMKr251/23.4CARMEL VOR/DME116.6012W
CRIr359/28.5CANARSIE VOR/DME112.3011W
JFKr349/29.0KENNEDY VOR/DME115.9012W
HUOr139/32.4HUGUENOT VOR/DME116.1011W
IGNr206/36.4KINGSTON VOR/DME117.6012W
DPKr310/36.9DEER PARK VOR/DME117.7012W
STWr094/38.5STILLWATER VOR/DME109.6011W
BWZr076/39.8BROADWAY VOR/DME114.2011W

 
NDB name  Hdg/Dist  Freq  Var  ID
STANWYCK190/27.026112WSKU ... -.- ..-
CHATHAM055/27.325413WCAT -.-. .- -
BRIDGE000/31.241412WOGY --- --. -.--
BABYLON324/37.927514WBBN -... -... -.

Heliport Services

Runway Information

Helipad H1

Dimensions: 60 x 60 ft. / 18 x 18 m
Surface: asphalt
Operational restrictions: RT H1 ALL TFC PATTERNS ON EAST SIDE OF ARPT.
Traffic pattern: leftleft

Heliport Ownership and Management from official FAA records

Ownership: Privately-owned
Owner: WYETH AYERST, INC.
401 N. MIDDLETOWN RD
PEARL RIVER, NY 10965
Phone (845) 602-4847
Manager: TIM STROHMEYER
401 N. MIDDLETOWN RD
PEARL RIVER, NY 10965
Phone (845) 602-4847

Additional Remarks

A52-H1 RY H1 PLINES EAST, TREES ON NORTH APCH/DEP PATH, ELEVATED GND ON SOUTH APCH/DEP PATH.

Instrument Procedures

There are no published instrument procedures at NY47.

Some nearby airports with instrument procedures:

KTEB - Teterboro Airport (14 nm S)
KHPN - Westchester County Airport (14 nm E)
4N1 - Greenwood Lake Airport (15 nm W)
N07 - Lincoln Park Airport (15 nm SW)
KCDW - Essex County Airport (17 nm SW)
KLGA - LaGuardia Airport (19 nm S)
KJRA - West 30th St Heliport (19 nm S)
 
Loc | Ops | Rwys | IFR | FBO | Links
Com | Nav | Svcs | Stats | Notes


 
Area around NY47 (Wyeth Ayerst Heliport)
 
Road maps at: MapQuest Bing Google
 
Aerial photo
No photo
 
Sectional chart

 
Airport distance calculator
Flying to Wyeth Ayerst Heliport? Find the distance to fly.

From to NY47

Sunrise and sunset
Times for 22-Jul-2017
 Local
(UTC-4)
 Zulu
(UTC)
Morning civil twilight05:1209:12
Sunrise05:4309:43
Sunset20:2200:22
Evening civil twilight20:5300:53

Current date and time
Zulu (UTC)  22-Jul-2017 19:06:26
Local (UTC-4)  22-Jul-2017 15:06:26
 
METAR
KTEB 
13nm S 
221851Z 00000KT 10SM CLR 32/14 A2980 RMK AO2 SLP091 T03220144
KHPN 
15nm E 
221656Z 16005KT 10SM CLR 29/16 A2987 RMK SLP105
KCDW 
17nm SW 
221853Z VRB03KT 10SM CLR 32/16 A2982 RMK AO2 SLP102 T03170161
KNYC 
18nm S 
221851Z AUTO VRB04KT 10SM CLR 33/14 A2984 RMK AO2 SLP095 T03280139
KLGA 
19nm S 
221851Z 15005KT 10SM FEW060 BKN180 BKN250 31/19 A2981 RMK AO2 SLP095 T03110194
KJRB 
23nm S 
221856Z AUTO VRB03KT 10SM CLR 33/18 A2983 RMK AO2 SLP099 T03280183
KEWR 
25nm S 
221851Z 16006KT 10SM FEW050 FEW130 BKN190 BKN250 32/16 A2981 RMK AO2 SLP093 T03220161
KMMU 
25nm SW 
221845Z 29004KT 10SM BKN250 31/17 A2983
TAF
KTEB 
13nm S 
221738Z 2218/2318 05007KT P6SM SCT250 FM230000 13005KT P6SM VCTS SCT035CB BKN070 TEMPO 2301/2303 5SM TSRA BKN025CB FM230400 08007KT P6SM SHRA SCT025 OVC060 PROB30 2304/2309 3SM TSRA BKN010CB FM231000 04008KT P6SM SCT025 FM231600 12009KT P6SM BKN035
KHPN 
15nm E 
221738Z 2218/2318 16008KT P6SM SCT250 FM230100 13006KT P6SM VCTS SCT035CB BKN070 TEMPO 2302/2304 5SM TSRA BKN025CB FM230500 02008KT P6SM SHRA SCT025 OVC060 PROB30 2305/2309 3SM TSRA BKN010CB FM231000 04009KT P6SM SCT025 FM231600 12010KT P6SM BKN035 AMD NOT SKED
KLGA 
19nm S 
221738Z 2218/2318 16009KT P6SM SCT250 FM230000 14006KT P6SM VCTS SCT035CB BKN070 TEMPO 2301/2303 5SM TSRA BKN025CB FM230400 09008KT P6SM SHRA SCT025 OVC060 PROB30 2304/2309 3SM TSRA BKN010CB FM231000 06008KT P6SM SCT025 FM231600 12009KT P6SM BKN035
NOTAMs
Click for the latest NOTAMs
NOTAMs are issued by the DoD/FAA and will open in a separate window not controlled by AirNav.

 

 
 

Would you like to see your business listed on this page?

 If your business provides an interesting product or service to pilots, flight crews, aircraft, or users of the Wyeth Ayerst Heliport, you should consider listing it here.  To start the listing process, click on the button below
 
Add a business
 

Other Pages about Wyeth Ayerst Heliport

Update a link
 
Copyright © AirNav, LLC. All rights reserved. Privacy Policy  Contact